Time;durP1;ratioP1;P1;durP2;ratioP2;P2;SDS_P1;SDS_P2;PMS_P1;PMS_P2;Temp;Humidity;BMP_temperature;BMP_pressure;BME280_temperature;BME280_humidity;BME280_pressure;Samples;Min_cycle;Max_cycle;Signal;HPM_P1;HPM_P2
2022/01/15 00:01:31;;;;;;;29.57;13.33;;;3.40;99.90;;;;;;4155969;28;21331;-76
2022/01/15 00:03:32;;;;;;;32.70;14.63;;;3.40;99.90;;;;;;4155775;28;20549;-77
2022/01/15 00:05:35;;;;;;;29.20;13.03;;;3.40;99.90;;;;;;4156238;28;21646;-76
2022/01/15 00:07:38;;;;;;;28.67;12.93;;;3.40;99.90;;;;;;4154831;28;20908;-75
2022/01/15 00:09:42;;;;;;;28.47;13.13;;;3.40;99.90;;;;;;4154104;28;20547;-75
2022/01/15 00:11:45;;;;;;;30.60;13.57;;;3.40;99.90;;;;;;4154923;28;20465;-75
2022/01/15 00:13:54;;;;;;;27.07;12.90;;;3.30;99.90;;;;;;4155262;28;21002;-75
2022/01/15 00:16:05;;;;;;;29.57;13.00;;;3.30;99.90;;;;;;4154122;28;20480;-74
2022/01/15 00:18:12;;;;;;;25.30;11.70;;;3.30;99.90;;;;;;4155863;28;20956;-76
2022/01/15 00:20:16;;;;;;;29.00;12.87;;;3.30;99.90;;;;;;4154222;28;20477;-75
2022/01/15 00:22:19;;;;;;;28.07;12.93;;;3.30;99.90;;;;;;4155363;28;20546;-75
2022/01/15 00:24:23;;;;;;;30.87;12.90;;;3.30;99.90;;;;;;4155096;28;20473;-75
2022/01/15 00:26:24;;;;;;;30.60;13.40;;;3.30;99.90;;;;;;4155785;28;20497;-75
2022/01/15 00:28:28;;;;;;;29.73;13.60;;;3.30;99.90;;;;;;4155220;28;20454;-75
2022/01/15 00:30:29;;;;;;;28.87;12.33;;;3.30;99.90;;;;;;4155712;28;21053;-76
2022/01/15 00:32:31;;;;;;;29.37;14.07;;;3.30;99.90;;;;;;4154565;28;20529;-76
2022/01/15 00:34:33;;;;;;;27.27;12.20;;;3.30;99.90;;;;;;4153890;28;20475;-75
2022/01/15 00:36:35;;;;;;;26.90;12.97;;;3.30;99.90;;;;;;4153776;28;20858;-76
2022/01/15 00:38:36;;;;;;;28.40;13.57;;;3.30;99.90;;;;;;4155598;28;20494;-77
2022/01/15 00:40:38;;;;;;;31.17;13.50;;;3.30;99.90;;;;;;4149621;28;20466;-77
2022/01/15 00:42:40;;;;;;;26.43;11.93;;;3.30;99.90;;;;;;4147984;28;20459;-77
2022/01/15 00:44:48;;;;;;;31.00;13.73;;;3.30;99.90;;;;;;4146562;28;20509;-75
2022/01/15 00:46:50;;;;;;;29.30;13.47;;;3.30;99.90;;;;;;4152158;28;20482;-77
2022/01/15 00:48:58;;;;;;;29.20;13.17;;;3.40;99.90;;;;;;4150022;28;21035;-77
2022/01/15 01:08:36;;;;;;;28.93;13.13;;;3.40;99.90;;;;;;3972325;29;20463;-75
2022/01/15 01:20:49;;;;;;;28.97;13.33;;;3.20;99.90;;;;;;4144396;28;20445;-74
2022/01/15 01:22:55;;;;;;;32.70;14.03;;;3.20;99.90;;;;;;4148137;28;20477;-77
2022/01/15 01:24:58;;;;;;;30.17;13.33;;;3.10;99.90;;;;;;4162507;28;20453;-77
2022/01/15 01:27:03;;;;;;;28.30;13.00;;;3.20;99.90;;;;;;4162588;28;20515;-77
2022/01/15 01:29:14;;;;;;;32.63;14.50;;;3.10;99.90;;;;;;4162960;28;20843;-75
2022/01/15 01:31:20;;;;;;;28.67;12.63;;;3.10;99.90;;;;;;4150351;28;20892;-76
2022/01/15 01:33:33;;;;;;;29.20;13.63;;;3.10;99.90;;;;;;4150404;28;20832;-76
2022/01/15 01:35:40;;;;;;;27.97;13.17;;;3.00;99.90;;;;;;4151338;28;20469;-74
2022/01/15 01:37:45;;;;;;;33.00;13.27;;;3.00;99.90;;;;;;4161881;28;20533;-75
2022/01/15 01:39:50;;;;;;;32.30;13.70;;;3.00;99.90;;;;;;4161022;28;20464;-74
2022/01/15 01:42:07;;;;;;;31.40;15.00;;;2.90;99.90;;;;;;4165174;28;20465;-74
2022/01/15 01:44:16;;;;;;;27.87;13.43;;;3.00;99.90;;;;;;4160131;28;20544;-75
2022/01/15 01:46:31;;;;;;;29.90;13.53;;;2.90;99.90;;;;;;4165656;28;21012;-74
2022/01/15 01:48:33;;;;;;;29.93;13.33;;;2.90;99.90;;;;;;4164939;28;20461;-73
2022/01/15 01:50:34;;;;;;;33.30;14.03;;;2.80;99.90;;;;;;4166178;28;20461;-73
2022/01/15 01:52:37;;;;;;;30.17;14.00;;;2.80;99.90;;;;;;4166225;28;20477;-74
2022/01/15 01:54:38;;;;;;;30.20;14.17;;;2.80;99.90;;;;;;4164274;28;20830;-74
2022/01/15 01:56:40;;;;;;;31.30;13.63;;;2.80;99.90;;;;;;4162144;28;20481;-73
2022/01/15 01:58:44;;;;;;;32.43;14.17;;;2.70;99.90;;;;;;4153031;28;20501;-74
2022/01/15 02:00:45;;;;;;;31.57;14.47;;;2.70;99.90;;;;;;4161018;28;20928;-74
2022/01/15 02:02:47;;;;;;;28.87;13.33;;;2.70;99.90;;;;;;4163446;28;20845;-76
2022/01/15 02:04:49;;;;;;;31.97;13.50;;;2.70;99.90;;;;;;4165050;28;20454;-77
2022/01/15 02:06:51;;;;;;;28.73;13.20;;;2.70;99.90;;;;;;4162352;28;20516;-77
2022/01/15 02:08:54;;;;;;;32.50;13.97;;;2.60;99.90;;;;;;4164044;28;20513;-77
2022/01/15 02:10:58;;;;;;;31.13;13.67;;;2.60;99.90;;;;;;4164967;28;20910;-76
2022/01/15 02:13:01;;;;;;;29.90;13.20;;;2.60;99.90;;;;;;4164354;28;20449;-76
2022/01/15 02:15:08;;;;;;;32.33;14.27;;;2.60;99.90;;;;;;4162886;28;20472;-76
2022/01/15 02:17:12;;;;;;;33.13;14.33;;;2.60;99.90;;;;;;4165219;28;20542;-75
2022/01/15 02:19:13;;;;;;;30.30;13.47;;;2.60;99.90;;;;;;4165568;28;21073;-77
2022/01/15 02:23:36;;;;;;;28.07;12.37;;;2.50;99.90;;;;;;4165993;28;20487;-76
2022/01/15 02:25:42;;;;;;;28.03;12.03;;;2.50;99.90;;;;;;4162667;28;20460;-75
2022/01/15 02:27:44;;;;;;;31.27;14.07;;;2.50;99.90;;;;;;4161780;28;20930;-77
2022/01/15 02:29:45;;;;;;;29.77;13.23;;;2.50;99.90;;;;;;4158915;28;20962;-76
2022/01/15 02:31:47;;;;;;;35.27;14.50;;;2.50;99.90;;;;;;4159023;28;20509;-75
2022/01/15 02:33:51;;;;;;;29.23;12.50;;;2.40;99.90;;;;;;4160575;28;20504;-77
2022/01/15 02:35:53;;;;;;;29.17;13.73;;;2.40;99.90;;;;;;4161802;28;20457;-74
2022/01/15 02:38:02;;;;;;;32.87;13.53;;;2.40;99.90;;;;;;4147462;28;20467;-77
2022/01/15 02:40:05;;;;;;;29.03;12.83;;;2.40;99.90;;;;;;4159886;28;20504;-76
2022/01/15 02:42:07;;;;;;;31.37;13.43;;;2.40;99.90;;;;;;4163965;28;20546;-77
2022/01/15 02:44:16;;;;;;;33.20;14.10;;;2.40;99.90;;;;;;4151098;28;20470;-76
2022/01/15 02:46:24;;;;;;;33.20;13.83;;;2.40;99.90;;;;;;4152641;28;21029;-76
2022/01/15 02:48:27;;;;;;;29.67;13.00;;;2.40;99.90;;;;;;4162532;28;20518;-76
2022/01/15 02:50:29;;;;;;;31.47;13.93;;;2.40;99.90;;;;;;4164535;28;20449;-76
2022/01/15 02:52:31;;;;;;;30.33;13.27;;;2.40;99.90;;;;;;4164833;28;20461;-76
2022/01/15 02:54:34;;;;;;;27.27;12.70;;;2.40;99.90;;;;;;4160306;28;20473;-77
2022/01/15 02:56:38;;;;;;;30.47;12.50;;;2.40;99.90;;;;;;4157140;28;20498;-77
2022/01/15 02:58:40;;;;;;;27.90;12.27;;;2.30;99.90;;;;;;4164094;28;20493;-76
2022/01/15 03:00:41;;;;;;;29.83;13.43;;;2.30;99.90;;;;;;4164496;28;20461;-75
2022/01/15 03:02:43;;;;;;;29.00;13.37;;;2.30;99.90;;;;;;4156250;28;21286;-77
2022/01/15 03:04:45;;;;;;;28.03;12.17;;;2.30;99.90;;;;;;4152579;28;20495;-77
2022/01/15 03:06:46;;;;;;;32.00;13.30;;;2.90;99.90;;;;;;4165068;28;20529;-74
2022/01/15 03:08:49;;;;;;;25.83;12.03;;;2.20;99.90;;;;;;4164973;28;20527;-76
2022/01/15 03:10:52;;;;;;;26.10;12.30;;;2.20;99.90;;;;;;4154908;28;20900;-77
2022/01/15 03:12:56;;;;;;;28.63;12.87;;;2.10;99.90;;;;;;4164707;28;20468;-75
2022/01/15 03:15:01;;;;;;;28.63;11.83;;;2.20;99.90;;;;;;4160874;28;20497;-77
2022/01/15 03:17:03;;;;;;;31.07;13.20;;;2.10;99.90;;;;;;4164219;28;20477;-77
2022/01/15 03:19:04;;;;;;;29.43;13.40;;;2.10;99.90;;;;;;4162646;28;20609;-76
2022/01/15 03:21:06;;;;;;;25.20;11.53;;;2.10;99.90;;;;;;4156125;28;21025;-76
2022/01/15 03:23:08;;;;;;;30.47;11.90;;;2.00;99.90;;;;;;4162834;28;20457;-77
2022/01/15 03:25:10;;;;;;;27.40;12.77;;;2.00;99.90;;;;;;4163736;28;21015;-77
2022/01/15 03:27:13;;;;;;;33.23;14.33;;;2.00;99.90;;;;;;4163206;28;20911;-77
2022/01/15 03:29:15;;;;;;;26.97;12.47;;;2.00;99.90;;;;;;4158061;28;20526;-76
2022/01/15 03:31:16;;;;;;;31.40;13.63;;;2.00;99.90;;;;;;4164374;28;20526;-77
2022/01/15 03:33:18;;;;;;;26.53;12.27;;;1.90;99.90;;;;;;4162758;28;20496;-77
2022/01/15 03:35:21;;;;;;;28.03;12.53;;;1.90;99.90;;;;;;4163441;28;20966;-76
2022/01/15 03:37:22;;;;;;;30.10;12.77;;;1.90;99.90;;;;;;4159887;28;20725;-76
2022/01/15 03:39:24;;;;;;;26.07;11.70;;;1.90;99.90;;;;;;4164115;28;20623;-77
2022/01/15 03:41:26;;;;;;;29.33;12.97;;;1.90;99.90;;;;;;4164384;28;20457;-76
2022/01/15 03:43:29;;;;;;;26.77;11.77;;;1.80;99.90;;;;;;4163876;28;20469;-76
2022/01/15 03:45:31;;;;;;;28.67;12.90;;;2.10;99.90;;;;;;4163048;28;20453;-75
2022/01/15 03:47:33;;;;;;;29.43;12.37;;;1.80;99.90;;;;;;4151366;28;20571;-76
2022/01/15 03:49:35;;;;;;;28.60;12.63;;;1.80;99.90;;;;;;4163235;28;20531;-76
2022/01/15 03:51:37;;;;;;;27.87;12.03;;;1.70;99.90;;;;;;4163836;28;20456;-76
2022/01/15 03:53:39;;;;;;;30.27;13.23;;;1.80;99.90;;;;;;4159555;28;20947;-75
2022/01/15 03:55:40;;;;;;;30.63;13.00;;;1.80;99.90;;;;;;4154662;28;20871;-76
2022/01/15 03:57:42;;;;;;;27.87;12.60;;;1.80;99.90;;;;;;4163592;28;20476;-76
2022/01/15 03:59:46;;;;;;;27.87;11.20;;;1.70;99.90;;;;;;4162745;28;20524;-77
2022/01/15 04:01:48;;;;;;;27.73;12.67;;;1.70;99.90;;;;;;4163604;28;20931;-76
2022/01/15 04:03:50;;;;;;;25.70;12.03;;;1.70;99.90;;;;;;4158593;28;20484;-75
2022/01/15 04:05:53;;;;;;;22.70;11.10;;;1.70;99.90;;;;;;4160230;28;20479;-76
2022/01/15 04:07:54;;;;;;;22.07;10.10;;;1.60;99.90;;;;;;4163867;28;20500;-76
2022/01/15 04:09:56;;;;;;;22.93;10.53;;;1.60;99.90;;;;;;4163483;28;20507;-75
2022/01/15 04:11:57;;;;;;;24.77;11.27;;;1.60;99.90;;;;;;4159266;28;20569;-75
2022/01/15 04:13:59;;;;;;;27.23;11.53;;;1.60;99.90;;;;;;4148359;28;20501;-75
2022/01/15 04:16:02;;;;;;;26.13;12.40;;;1.50;99.90;;;;;;4161790;28;20505;-75
2022/01/15 04:18:04;;;;;;;27.33;12.40;;;1.50;99.90;;;;;;4163217;28;20965;-75
2022/01/15 04:20:06;;;;;;;28.93;12.50;;;1.50;99.90;;;;;;4162824;28;20875;-75
2022/01/15 04:22:08;;;;;;;28.03;12.83;;;1.50;99.90;;;;;;4159831;28;20467;-76
2022/01/15 04:24:10;;;;;;;31.90;12.40;;;1.50;99.90;;;;;;4162384;28;20452;-76
2022/01/15 04:26:11;;;;;;;29.63;12.73;;;1.50;99.90;;;;;;4163501;28;20501;-76
2022/01/15 04:28:13;;;;;;;28.97;12.63;;;1.50;99.90;;;;;;4164715;28;20488;-75
2022/01/15 04:30:16;;;;;;;29.70;11.97;;;1.50;99.90;;;;;;4159013;28;20491;-76
2022/01/15 04:32:19;;;;;;;25.37;12.10;;;1.50;99.90;;;;;;4147378;28;20470;-76
2022/01/15 04:34:24;;;;;;;32.40;13.10;;;1.40;99.90;;;;;;4146547;28;20980;-75
2022/01/15 04:36:26;;;;;;;30.97;13.60;;;1.50;99.90;;;;;;4160784;28;20511;-76
2022/01/15 04:38:31;;;;;;;27.00;12.57;;;1.40;99.90;;;;;;4162460;28;20473;-76
2022/01/15 04:40:33;;;;;;;26.50;12.40;;;1.40;99.90;;;;;;4161517;28;20495;-76
2022/01/15 04:42:36;;;;;;;26.03;12.27;;;1.40;99.90;;;;;;4163496;28;20456;-75
2022/01/15 04:44:38;;;;;;;29.10;12.80;;;1.40;99.90;;;;;;4158798;28;20984;-75
2022/01/15 04:46:40;;;;;;;29.73;13.47;;;1.40;99.90;;;;;;4160428;28;20530;-76
2022/01/15 04:48:43;;;;;;;30.83;13.17;;;1.40;99.90;;;;;;4162386;28;20467;-76
2022/01/15 04:50:45;;;;;;;32.67;14.63;;;1.40;99.90;;;;;;4162670;28;20456;-76
2022/01/15 04:52:47;;;;;;;31.50;14.17;;;1.40;99.90;;;;;;4158468;28;20873;-76
2022/01/15 04:54:49;;;;;;;31.00;13.63;;;1.40;99.90;;;;;;4146468;28;20473;-77
2022/01/15 04:56:51;;;;;;;32.10;13.73;;;1.40;99.90;;;;;;4163931;28;20818;-77
2022/01/15 04:58:53;;;;;;;32.93;13.97;;;1.40;99.90;;;;;;4165788;28;20460;-76
2022/01/15 05:00:54;;;;;;;28.47;13.00;;;1.40;99.90;;;;;;4162944;28;20464;-76
2022/01/15 05:02:57;;;;;;;30.20;13.37;;;1.40;99.90;;;;;;4150575;28;20492;-76
2022/01/15 05:04:59;;;;;;;29.00;13.30;;;1.40;99.90;;;;;;4159105;28;20467;-76
2022/01/15 05:07:01;;;;;;;28.27;12.83;;;1.40;99.90;;;;;;4159742;28;20526;-77
2022/01/15 05:09:05;;;;;;;29.13;12.10;;;1.40;99.90;;;;;;4164863;28;20503;-76
2022/01/15 05:11:14;;;;;;;27.60;12.80;;;1.40;99.90;;;;;;4170207;28;20493;-76
2022/01/15 05:13:19;;;;;;;29.37;12.47;;;1.30;99.90;;;;;;4166637;28;20463;-76
2022/01/15 05:15:21;;;;;;;29.17;12.77;;;1.30;99.90;;;;;;4164035;28;20533;-76
2022/01/15 05:17:22;;;;;;;27.47;12.13;;;1.30;99.90;;;;;;4162543;28;20524;-76
2022/01/15 05:19:24;;;;;;;29.73;11.17;;;1.30;99.90;;;;;;4150304;28;20786;-77
2022/01/15 05:21:27;;;;;;;26.97;11.67;;;1.30;99.90;;;;;;4150320;28;20497;-77
2022/01/15 05:23:29;;;;;;;26.57;11.80;;;1.30;99.90;;;;;;4150333;28;20493;-75
2022/01/15 05:25:30;;;;;;;26.47;11.57;;;1.30;99.90;;;;;;4154024;28;20983;-76
2022/01/15 05:27:32;;;;;;;25.90;11.90;;;1.30;99.90;;;;;;4163674;28;20928;-76
2022/01/15 05:29:34;;;;;;;28.83;12.53;;;1.30;99.90;;;;;;4164694;28;20465;-76
2022/01/15 05:31:35;;;;;;;25.93;11.40;;;1.30;99.90;;;;;;4163151;28;20970;-76
2022/01/15 05:33:37;;;;;;;27.57;12.17;;;1.30;99.90;;;;;;4154051;28;20465;-76
2022/01/15 05:35:39;;;;;;;25.20;12.67;;;1.30;99.90;;;;;;4156443;28;20506;-77
2022/01/15 05:37:41;;;;;;;29.20;13.10;;;1.30;99.90;;;;;;4158658;28;21894;-76
2022/01/15 05:39:43;;;;;;;30.77;12.60;;;1.30;99.90;;;;;;4166150;28;20547;-76
2022/01/15 05:41:45;;;;;;;25.03;12.10;;;1.30;99.90;;;;;;4166214;28;20855;-77
2022/01/15 05:43:47;;;;;;;23.37;12.07;;;1.30;99.90;;;;;;4166459;28;20956;-75
2022/01/15 05:45:49;;;;;;;25.23;12.27;;;1.30;99.90;;;;;;4160483;28;20494;-76
2022/01/15 05:47:50;;;;;;;25.20;11.70;;;1.40;99.90;;;;;;4153098;28;20518;-77
2022/01/15 05:49:52;;;;;;;24.40;11.80;;;1.40;99.90;;;;;;4166527;28;20459;-76
2022/01/15 05:51:54;;;;;;;22.53;11.20;;;1.40;99.90;;;;;;4165349;28;20459;-76
2022/01/15 05:53:57;;;;;;;23.63;10.97;;;1.40;99.90;;;;;;4150408;28;20531;-76
2022/01/15 05:55:58;;;;;;;24.87;11.93;;;1.40;99.90;;;;;;4157114;28;20483;-76
2022/01/15 05:58:00;;;;;;;22.03;11.20;;;1.40;99.90;;;;;;4161525;28;21002;-76
2022/01/15 06:00:02;;;;;;;24.47;10.97;;;1.40;99.90;;;;;;4164966;28;20488;-75
2022/01/15 06:02:04;;;;;;;23.07;11.10;;;1.40;99.90;;;;;;4154737;28;20902;-77
2022/01/15 06:04:06;;;;;;;23.93;10.87;;;1.40;99.90;;;;;;4161938;28;20939;-77
2022/01/15 06:06:08;;;;;;;24.57;11.47;;;1.40;99.90;;;;;;4164854;28;20847;-77
2022/01/15 06:08:09;;;;;;;23.07;11.57;;;1.50;99.90;;;;;;4158874;28;20961;-77
2022/01/15 06:10:13;;;;;;;23.47;11.67;;;1.50;99.90;;;;;;4157429;28;20478;-77
2022/01/15 06:12:14;;;;;;;25.10;10.80;;;1.50;99.90;;;;;;4149335;28;20520;-77
2022/01/15 06:14:16;;;;;;;24.47;11.43;;;1.50;99.90;;;;;;4158132;28;20472;-77
2022/01/15 06:16:18;;;;;;;27.13;12.33;;;1.50;99.90;;;;;;4164601;28;20481;-77
2022/01/15 06:18:19;;;;;;;24.90;11.40;;;1.50;99.90;;;;;;4159822;28;20560;-77
2022/01/15 06:20:21;;;;;;;22.67;11.50;;;1.50;99.90;;;;;;4148229;28;20524;-77
2022/01/15 06:22:23;;;;;;;23.77;11.23;;;1.50;99.90;;;;;;4149331;28;20516;-77
2022/01/15 06:24:24;;;;;;;26.03;11.70;;;1.50;99.90;;;;;;4148941;28;20969;-77
2022/01/15 06:26:27;;;;;;;23.87;11.53;;;1.50;99.90;;;;;;4159092;28;20489;-77
2022/01/15 06:28:29;;;;;;;24.23;11.47;;;1.50;99.90;;;;;;4156474;28;21173;-77
2022/01/15 06:30:31;;;;;;;26.20;12.20;;;1.50;99.90;;;;;;4149693;28;20496;-76
2022/01/15 06:32:36;;;;;;;26.87;12.40;;;1.50;99.90;;;;;;4164912;28;21015;-77
2022/01/15 06:34:37;;;;;;;28.40;12.07;;;1.50;99.90;;;;;;4159882;28;21020;-76
2022/01/15 06:36:39;;;;;;;27.20;12.33;;;1.50;99.90;;;;;;4158179;28;21047;-77
2022/01/15 06:38:40;;;;;;;27.60;12.93;;;1.50;99.90;;;;;;4165333;28;20841;-77
2022/01/15 06:40:42;;;;;;;32.67;13.57;;;1.50;99.90;;;;;;4164306;28;20494;-76
2022/01/15 06:42:45;;;;;;;31.00;13.00;;;1.50;99.90;;;;;;4163889;28;20984;-76
2022/01/15 06:44:46;;;;;;;32.93;13.23;;;1.60;99.90;;;;;;4156667;28;20516;-75
2022/01/15 06:46:48;;;;;;;32.83;14.20;;;1.60;99.90;;;;;;4164689;28;20893;-76
2022/01/15 06:48:50;;;;;;;30.03;12.23;;;1.60;99.90;;;;;;4164364;28;20440;-75
2022/01/15 06:50:52;;;;;;;30.53;13.67;;;1.60;99.90;;;;;;4164967;28;20472;-77
2022/01/15 06:52:53;;;;;;;29.17;13.20;;;1.60;99.90;;;;;;4158742;28;20477;-77
2022/01/15 06:54:55;;;;;;;31.23;13.10;;;1.60;99.90;;;;;;4164912;28;20938;-76
2022/01/15 06:56:57;;;;;;;30.10;13.37;;;1.60;99.90;;;;;;4154619;28;20560;-76
2022/01/15 06:59:00;;;;;;;29.80;12.63;;;1.60;99.90;;;;;;4148479;28;20453;-76
2022/01/15 07:01:01;;;;;;;33.13;14.37;;;1.70;99.90;;;;;;4152194;28;20843;-76
2022/01/15 07:03:03;;;;;;;31.77;13.53;;;1.70;99.90;;;;;;4164457;28;20457;-74
2022/01/15 07:05:05;;;;;;;28.00;12.47;;;1.70;99.90;;;;;;4164387;28;20723;-74
2022/01/15 07:07:07;;;;;;;30.67;13.07;;;1.70;99.90;;;;;;4163182;28;20498;-74
2022/01/15 07:09:09;;;;;;;28.40;13.53;;;1.70;99.90;;;;;;4164883;28;20461;-74
2022/01/15 07:11:11;;;;;;;31.33;13.67;;;1.70;99.90;;;;;;4157689;28;20501;-75
2022/01/15 07:13:12;;;;;;;33.23;15.07;;;1.70;99.90;;;;;;4164278;28;20461;-74
2022/01/15 07:15:15;;;;;;;29.33;12.43;;;1.70;99.90;;;;;;4165023;28;20508;-74
2022/01/15 07:17:17;;;;;;;31.53;13.13;;;1.70;99.90;;;;;;4163142;28;20504;-75
2022/01/15 07:19:19;;;;;;;28.37;13.47;;;1.70;99.90;;;;;;4164377;28;20499;-74
2022/01/15 07:21:20;;;;;;;26.87;12.37;;;1.70;99.90;;;;;;4151447;28;20954;-74
2022/01/15 07:23:22;;;;;;;30.83;14.30;;;1.70;99.90;;;;;;4164384;28;20544;-74
2022/01/15 07:25:24;;;;;;;30.77;13.63;;;1.70;99.90;;;;;;4164631;28;20469;-74
2022/01/15 07:27:25;;;;;;;30.10;13.13;;;1.70;99.90;;;;;;4164481;28;20481;-75
2022/01/15 07:29:29;;;;;;;29.93;12.90;;;1.80;99.90;;;;;;4156459;28;20512;-74
2022/01/15 07:31:33;;;;;;;31.97;13.27;;;1.80;99.90;;;;;;4164326;28;20954;-74
2022/01/15 07:33:34;;;;;;;33.63;14.17;;;1.80;99.90;;;;;;4166117;28;20555;-74
2022/01/15 07:35:36;;;;;;;34.07;13.73;;;1.80;99.90;;;;;;4161461;28;20898;-74
2022/01/15 07:37:39;;;;;;;31.03;13.53;;;1.80;99.90;;;;;;4157708;28;20469;-75
2022/01/15 07:39:40;;;;;;;30.50;12.63;;;1.80;99.90;;;;;;4164005;28;20460;-74
2022/01/15 07:41:43;;;;;;;28.00;12.53;;;1.90;99.90;;;;;;4163791;28;20531;-74
2022/01/15 07:43:45;;;;;;;30.63;13.57;;;1.90;99.90;;;;;;4160319;28;20500;-74
2022/01/15 07:45:47;;;;;;;30.77;12.20;;;1.90;99.90;;;;;;4163813;28;20802;-74
2022/01/15 07:47:50;;;;;;;32.03;13.20;;;1.90;99.90;;;;;;4160973;28;20866;-74
2022/01/15 07:49:51;;;;;;;31.40;12.77;;;1.90;99.90;;;;;;4163214;28;20476;-74
2022/01/15 07:51:53;;;;;;;32.30;12.93;;;1.90;99.90;;;;;;4163446;28;20453;-73
2022/01/15 07:53:55;;;;;;;29.23;13.03;;;2.00;99.90;;;;;;4156088;28;20477;-74
2022/01/15 07:55:56;;;;;;;30.87;13.47;;;2.00;99.90;;;;;;4162916;28;20519;-74
2022/01/15 07:57:58;;;;;;;31.67;13.23;;;2.00;99.90;;;;;;4147163;28;20818;-74
2022/01/15 08:00:00;;;;;;;31.90;13.27;;;2.00;99.90;;;;;;4147107;28;20841;-74
2022/01/15 08:02:02;;;;;;;33.13;14.00;;;2.00;99.90;;;;;;4154323;28;20481;-74
2022/01/15 08:04:05;;;;;;;29.37;12.70;;;2.10;99.90;;;;;;4163903;28;20457;-74
2022/01/15 08:06:09;;;;;;;30.50;12.67;;;2.10;99.90;;;;;;4159993;28;20479;-74
2022/01/15 08:08:10;;;;;;;34.20;13.77;;;2.10;99.90;;;;;;4163900;28;20452;-74
2022/01/15 08:10:12;;;;;;;33.00;13.00;;;2.10;99.90;;;;;;4162929;28;20576;-74
2022/01/15 08:12:15;;;;;;;29.47;13.10;;;2.10;99.90;;;;;;4162219;28;20457;-74
2022/01/15 08:14:17;;;;;;;31.13;13.27;;;2.10;99.90;;;;;;4162606;28;20468;-76
2022/01/15 08:16:19;;;;;;;32.93;13.33;;;2.20;99.90;;;;;;4160871;28;20528;-74
2022/01/15 08:18:21;;;;;;;32.20;14.10;;;2.20;99.90;;;;;;4163286;28;20878;-74
2022/01/15 08:20:25;;;;;;;33.97;13.90;;;2.20;99.90;;;;;;4163805;28;20807;-74
2022/01/15 08:22:26;;;;;;;31.47;14.13;;;2.20;99.90;;;;;;4162788;28;20474;-74
2022/01/15 08:24:28;;;;;;;33.00;14.50;;;2.20;99.90;;;;;;4159077;28;20505;-74
2022/01/15 08:26:30;;;;;;;32.40;13.87;;;2.20;99.90;;;;;;4147088;28;20528;-74
2022/01/15 08:28:31;;;;;;;33.23;14.70;;;2.20;99.90;;;;;;4147781;28;20472;-74
2022/01/15 08:30:33;;;;;;;33.50;14.33;;;2.20;99.90;;;;;;4162381;28;21001;-77
2022/01/15 08:32:35;;;;;;;31.40;14.07;;;2.30;99.90;;;;;;4158629;28;20524;-77
2022/01/15 08:34:38;;;;;;;30.00;13.47;;;2.30;99.90;;;;;;4161229;28;20506;-77
2022/01/15 08:36:42;;;;;;;32.17;14.13;;;2.30;99.90;;;;;;4158242;28;20488;-76
2022/01/15 08:38:43;;;;;;;33.03;13.20;;;2.40;99.90;;;;;;4167316;28;20448;-78
2022/01/15 08:40:45;;;;;;;32.10;14.00;;;2.30;99.90;;;;;;4166347;28;20491;-76
2022/01/15 08:42:47;;;;;;;30.77;13.83;;;2.40;99.90;;;;;;4163170;28;20465;-77
2022/01/15 08:44:51;;;;;;;32.30;14.10;;;2.40;99.90;;;;;;4155165;28;20512;-76
2022/01/15 08:46:56;;;;;;;32.13;14.00;;;2.40;99.90;;;;;;4161943;28;20481;-77
2022/01/15 08:48:58;;;;;;;31.77;13.17;;;2.40;99.90;;;;;;4162583;28;20469;-78
2022/01/15 08:50:59;;;;;;;32.57;13.53;;;2.50;99.90;;;;;;4165442;28;20456;-77
2022/01/15 08:53:04;;;;;;;34.00;14.60;;;2.50;99.90;;;;;;4158658;28;20523;-77
2022/01/15 08:55:08;;;;;;;29.10;13.23;;;2.50;99.90;;;;;;4165936;28;20515;-77
2022/01/15 08:57:10;;;;;;;32.63;13.83;;;2.50;99.90;;;;;;4162985;28;20481;-77
2022/01/15 08:59:12;;;;;;;32.80;13.90;;;2.50;99.90;;;;;;4153800;28;20874;-77
2022/01/15 09:01:15;;;;;;;31.27;14.43;;;2.60;99.90;;;;;;4163499;28;20561;-77
2022/01/15 09:03:16;;;;;;;31.00;14.33;;;2.60;99.90;;;;;;4165202;28;20469;-77
2022/01/15 09:05:18;;;;;;;32.03;13.70;;;2.60;99.90;;;;;;4163107;28;20879;-74
2022/01/15 09:07:21;;;;;;;32.80;15.00;;;2.60;99.90;;;;;;4161367;28;20515;-76
2022/01/15 09:09:24;;;;;;;36.67;15.03;;;2.70;99.90;;;;;;4150971;28;20454;-76
2022/01/15 09:11:25;;;;;;;33.77;14.60;;;2.70;99.90;;;;;;4153041;28;20474;-76
2022/01/15 09:13:29;;;;;;;33.20;14.57;;;2.70;99.90;;;;;;4162995;28;20497;-76
2022/01/15 09:15:31;;;;;;;35.47;14.60;;;2.70;99.90;;;;;;4150140;28;20513;-77
2022/01/15 09:17:33;;;;;;;29.43;12.87;;;2.70;99.90;;;;;;4152574;28;20489;-77
2022/01/15 09:19:35;;;;;;;30.30;12.83;;;2.80;99.90;;;;;;4150493;28;20490;-76
2022/01/15 09:21:36;;;;;;;32.57;13.27;;;2.80;99.90;;;;;;4152331;28;20521;-76
2022/01/15 09:23:38;;;;;;;30.53;13.07;;;2.80;99.90;;;;;;4156553;28;20586;-76
2022/01/15 09:25:41;;;;;;;28.27;12.37;;;2.80;99.90;;;;;;4163891;28;20526;-76
2022/01/15 09:30:13;;;;;;;31.40;14.20;;;2.90;99.90;;;;;;4170053;28;20457;-76
2022/01/15 09:32:17;;;;;;;31.27;13.27;;;2.90;99.90;;;;;;4161117;28;20458;-77
2022/01/15 09:34:19;;;;;;;30.00;14.03;;;2.90;99.90;;;;;;4164241;28;20466;-80
2022/01/15 09:36:20;;;;;;;37.03;16.20;;;2.90;99.90;;;;;;4158929;28;20470;-77
2022/01/15 09:38:22;;;;;;;45.90;19.93;;;2.90;99.90;;;;;;4155687;28;20469;-79
2022/01/15 09:40:26;;;;;;;47.97;20.73;;;2.90;99.90;;;;;;4163015;28;20447;-81
2022/01/15 09:42:30;;;;;;;49.73;21.33;;;3.00;99.90;;;;;;4165502;28;20908;-77
2022/01/15 09:44:34;;;;;;;36.87;16.23;;;3.00;99.90;;;;;;4157055;28;20524;-75
2022/01/15 09:46:37;;;;;;;42.77;18.90;;;3.00;99.90;;;;;;4151539;28;20921;-76
2022/01/15 09:48:40;;;;;;;41.23;17.37;;;3.00;99.90;;;;;;4153710;28;20447;-76
2022/01/15 09:50:44;;;;;;;35.67;15.77;;;3.00;99.90;;;;;;4163208;28;20460;-81
2022/01/15 09:52:46;;;;;;;36.27;15.80;;;3.00;99.90;;;;;;4168386;28;20462;-80
2022/01/15 09:54:48;;;;;;;35.90;15.30;;;3.10;99.90;;;;;;4158436;28;20482;-78
2022/01/15 09:56:50;;;;;;;32.53;14.50;;;3.10;99.90;;;;;;4161073;28;20466;-81
2022/01/15 09:58:54;;;;;;;31.57;14.17;;;3.10;99.90;;;;;;4154753;28;21011;-78
2022/01/15 10:00:55;;;;;;;33.70;14.60;;;3.10;99.90;;;;;;4159369;28;20446;-79
2022/01/15 10:02:57;;;;;;;34.77;14.50;;;3.20;99.90;;;;;;4157095;28;21007;-80
2022/01/15 10:04:59;;;;;;;35.60;15.23;;;3.20;99.90;;;;;;4161284;28;20475;-80
2022/01/15 10:07:12;;;;;;;34.10;14.60;;;3.20;99.90;;;;;;4158721;28;20528;-80
2022/01/15 10:09:14;;;;;;;35.33;15.00;;;3.20;99.90;;;;;;4157650;28;20469;-81
2022/01/15 10:11:39;;;;;;;31.57;14.00;;;3.20;99.90;;;;;;4157022;28;20455;-80
2022/01/15 10:13:44;;;;;;;33.63;14.20;;;3.30;99.90;;;;;;4161657;28;20458;-80
2022/01/15 10:15:49;;;;;;;34.40;13.73;;;3.30;99.90;;;;;;4154506;28;20906;-78
2022/01/15 10:17:50;;;;;;;30.60;14.27;;;3.30;99.90;;;;;;4157544;28;20466;-80
2022/01/15 10:19:53;;;;;;;31.50;14.00;;;3.30;99.90;;;;;;4166405;28;20837;-79
2022/01/15 10:22:12;;;;;;;32.97;13.97;;;3.30;99.90;;;;;;4156863;28;20499;-80
2022/01/15 10:24:14;;;;;;;31.50;13.27;;;3.40;99.90;;;;;;4164255;28;20473;-81
2022/01/15 10:26:17;;;;;;;28.57;13.00;;;3.40;99.90;;;;;;4161710;28;20576;-80
2022/01/15 10:28:18;;;;;;;31.57;13.90;;;3.40;99.90;;;;;;4167713;28;20457;-79
2022/01/15 10:30:22;;;;;;;35.30;15.60;;;3.40;99.90;;;;;;4166460;28;20462;-78
2022/01/15 10:32:26;;;;;;;34.17;14.77;;;3.50;99.90;;;;;;4166186;28;20450;-77
2022/01/15 10:34:31;;;;;;;32.40;14.87;;;3.50;99.90;;;;;;4154215;28;20462;-78
2022/01/15 10:36:34;;;;;;;33.70;14.73;;;3.50;99.90;;;;;;4164465;28;20490;-77
2022/01/15 10:38:35;;;;;;;31.77;14.20;;;3.50;99.90;;;;;;4159617;28;20459;-76
2022/01/15 10:40:42;;;;;;;30.40;13.50;;;3.50;99.90;;;;;;4162043;28;20490;-76
2022/01/15 10:42:53;;;;;;;34.67;15.40;;;3.50;99.90;;;;;;4171718;28;20493;-77
2022/01/15 10:44:57;;;;;;;31.87;13.80;;;3.60;99.90;;;;;;4159690;28;20463;-78
2022/01/15 10:47:09;;;;;;;31.83;13.70;;;3.60;99.90;;;;;;4172530;28;20477;-78
2022/01/15 10:49:26;;;;;;;32.17;13.67;;;3.60;99.90;;;;;;4162578;28;20455;-77
2022/01/15 10:51:28;;;;;;;31.70;14.60;;;3.70;99.90;;;;;;4166458;28;20519;-78
2022/01/15 10:53:37;;;;;;;31.43;13.87;;;3.70;99.90;;;;;;4155817;28;21258;-78
2022/01/15 10:55:41;;;;;;;31.77;14.17;;;3.70;99.90;;;;;;4160654;28;20474;-78
2022/01/15 10:57:45;;;;;;;30.97;14.13;;;3.80;99.90;;;;;;4166493;28;20568;-77
2022/01/15 11:00:07;;;;;;;35.23;15.17;;;3.80;99.90;;;;;;4156361;28;20513;-78
2022/01/15 11:02:18;;;;;;;32.37;13.90;;;3.80;99.90;;;;;;4166888;28;20947;-77
2022/01/15 11:04:35;;;;;;;30.17;14.03;;;3.80;99.90;;;;;;4164947;28;21177;-77